This site, now in its 15th season, is a labour of love and fun from one of Ottawa's most avid time trialists and number crunchers. It adheres to and is permitted by the laws of Canada, promotes the objectives of every bicycle club whose results are shown, and is donated free of charge by myself for your enjoyment and usage. If you would like results from series you ride in to be shown here, give me (celia@drmath.ca) a shout!


Index Page
ATT OTT WTT CFCTT VVVTT
Help resultformat:
Case-sensitive

OBC Open TT Series - 2003-Aug-07 - 15km (Rockliffe Pkwy) (EvtFactor = 0.9504)

Weather (18:00): Distant Precipitation. Temp.: 27°C, Humidity: 64%, DewPoint: 20°C, Wind: SW 13km/h, Pressure: 101.2kPa, Visibility: 24km, Humidex: 34°C.
Weather (19:00): Mostly Cloudy. Temp.: 25°C, Humidity: 74%, DewPoint: 20°C, Wind: SSE 5km/h, Pressure: 101.2kPa, Visibility: 16km, Humidex: 33°C.

Send photos with description (when/where/what) of yourself on or off of bike to celia@drmath.ca

 
 

BESTS?
 
1 Datars, Paul  OBC 19:52 45.302 1/63 VBM 1/16 0.9975
2 Burge, Craig  OBC/WQW 20:05 44.813 2/63 VBM 2/16 1.0352
3 Sudac, Rick  OBC 20:21 44.226 3/63 VCM 1/10 0.9902
4 Hamilton, Peter OBC 20:54 43.062 4/63 VBM 3/16 1.0144
5 Johnson, Jamie OBC 21:01 42.823 5/63 VAM 1/13 1.0361
6 Nash, Michael  OBC 21:06 42.654 6/63 VAM 2/13 1.0047
7 Hinz, Richard OBC 21:21 42.155 7/63 VBM 4/16 0.9977
8 Fontaine, Randy OBC 21:24 42.056 8/63 VAM 3/13 1.0644
9 Gustavsson, Robert OBC 21:26 41.991 9/63 JUM 1/3 0.9451
10 Martin, David OBC 21:31 41.828 10/63 VAM 4/13 1.1460
11 Fee, John OBC 21:42 41.475 11/63 SEM 1/5 1.0421
12 Weiser, Paul OBC 21:46 41.348 12/63 VCM 2/10 0.9886
13 Martignago, Mike OBC 21:48 41.284 13/63 VBM 5/16 1.1465
14 Henschel, Peter OBC 21:49 41.253 14/63 VBM 6/16 0.8919
15 Glover, Jim  OBC 21:56 41.033 15/63 VBM 7/16 1.1110
16 Graves, Kevin OBC 21:57 41.002 16/63 SEM 2/5 0.9223
17 Stachon, David OBC 22:08 40.663 17/63 VAM 5/13 1.0045
18 Thibault, Jean-Pierre OBC 22:11 40.571 18/63 SEM 3/5 0.9688
19 Morvan, Jacques  OBC 22:15 40.449 19/63 VCM 3/10 0.9711
20 Walker, Blair OBC 22:16 40.419 20/63 VAM 6/13 1.0203
21 Samborsky, Mark OBC 22:20 40.299 21/63 VAM 7/13 1.0046
22 Beaton, Dale OBC 22:27 40.089 22/63 CAM 1/2 0.9219
23 Stephenson, Jennifer  OBC 22:38 39.764 23/63 SEF 1/2 1.0022
24 Ménard-Kilrane, René OBC 22:41 39.677 24/63 JUM 2/3 1.0516
25 Hess, Detlef OBC 22:43 39.618 25/63 VBM 8/16 0.9630
26 Burdett, Avery  OBC 22:47 39.503 26/63 VDM 1/3 0.9782
27 McKay, Allison  OBC 22:51 39.387 27/63 VAF 1/4 0.9956
28 Moerman, Bram  OBC 22:52 39.359 28/63 VCM 4/10 0.9089
29 Musson, Harry OBC 22:53 39.330 29/63 VCM 5/10 0.9848
30 Johnson, Neil OBC 23:06 38.961 30/63 SEM 4/5 1.0022
Maly, Peter OBC 23:06 38.961 30/63 VAM 8/13 0.9871
32 Pazdzior, Ellen  OBC 23:08 38.905 32/63 VBF 1/3 0.9595
33 St-Amour, Pierre OBC 23:09 38.877 33/63 VBM 9/16 0.9263
34 Lau, Michael OBC 23:11 38.821 34/63 VBM 10/16 0.9367
35 Kealey, Sheila OBC 23:13 38.765 35/63 VAF 2/4 0.9680
36 DeKelver, Michael OBC 23:23 38.489 36/63 VAM 9/13 0.9517
37 Humphreys, Les  OBC/ABC 23:29 38.325 37/63 VDM 2/3 1.0042
38 Henry, Angus OBC 23:30 38.298 38/63 VAM 10/13 0.9852
Messier, Jean-David OBC 23:30 38.298 38/63 JUM 3/3 0.9193
40 Hawkes, Craig OBC 23:44 37.921 40/63 VAM 11/13 0.8692
41 Revesz, Erika  OBC 23:51 37.736 41/63 VBF 2/3 1.1633
42 McKay, Andrea  OBC 24:00 37.500 42/63 VAF 3/4 0.9408
43 James, Peter OBC 24:05 37.370 43/63 VCM 6/10 1.0041
44 Burge, Larry  OBC 24:13 37.164 44/63 VBM 11/16 0.9099
45 Coldwell, Michael  OBC 24:15 37.113 45/63 VBM 12/16 0.8889
46 Anderson, Allan OBC 24:29 36.760 46/63 VBM 13/16 0.9838
47 Beaudoin, Aaron OBC 24:41 36.462 47/63 CAM 2/2 1.0369
48 Brugger, Marcel OBC 24:47 36.315 48/63 VBM 14/16  
49 Erskine, James OBC 24:49 36.266 49/63 VAM 12/13  
50 Ray, Brian OBC 24:53 36.169 50/63 VCM 7/10 1.0407
51 Phelan, Cynthia OBC 24:56 36.096 51/63 SEF 2/2 1.1295
52 Ajersch, Mary  OBC 25:24 35.433 52/63 VDF 1/1 1.0787
53 McInnis, Celia  OBC 25:43 34.997 53/63 VBF 3/3 1.0295
54 Johnson, Byron  OBC 25:48 34.884 54/63 VCM 8/10 0.9981
55 Leroux, Matthieu --- 26:00 34.615 55/63 SEM 5/5 0.9980
56 Chenier, Carl OBC 26:01 34.593 56/63 VAM 13/13 0.9771
57 Chlebek, Robert OBC 26:02 34.571 57/63 VDM 3/3 0.9490
58 Hardy, Robert OBC 27:48 32.374 58/63 VCM 9/10 1.0272
59 Krausbar, Nikolas OBC 27:59 32.162 59/63 PWM 1/1 0.9752
60 Stoneham, Ron OBC 28:13 31.896 60/63 VCM 10/10  
61 McLaren, Louise  OBC 28:27 31.634 61/63 VAF 4/4 0.9163
62 Spanos, Gus OBC 30:04 29.933 62/63 VBM 15/16 0.8192
63 Twemlow, John OBC 36:00 25.000 63/63 VBM 16/16 1.0000
 
Average Speed of all of the above 63 finishes (945km in 24:51:58):38.004
>>>Average of the Average Speeds for these 63 finishes38.398<<<
 

The number of data records shown above is 63
The server processing of your query took: 3 wallclock secs ( 0.25 usr + 0.05 sys = 0.30 CPU)

Thanks to our Helpers: Evelyn Beaton, Sally Datars, Kevin Feenan, Alex McKnight, Brian McLaughlin, Geoffrey Wright.

     


Apr 18 (Good Friday)
May 1 May 6 (10km) (rained out) May 8 May 13 May 13 (10km) May 15 May 20 May 20 (10km) May 22 May 27 May 27 (10km) May 29
Jun 3 Jun 3 Jun 5 Jun 10 Jun 10 Jun 12 Jun 15 (40km) Jun 17 Jun 17 Jun 19 Jun 24 Jun 24 Jun 26
Jul 1 Jul 1 (cancelled ) Jul 3 Jul 8 Jul 8 Jul 10 Jul 15 Jul 15 Jul 17 Jul 22 Jul 22 Jul 24 Jul 27 (40km) Jul 29 Jul 29 Jul 31
Aug 5 Aug 5
  Aug 7  
Aug 10 (40km) Aug 12 Aug 12 (cancelled) Aug 14 Aug 19 Aug 19 Aug 21 Aug 26 Aug 26 (Invitational) Aug 28
Sep 2 Sep 4 (Personal-Handicapped) Sep 7 (40km) Sep 9 Sep 11 Sep 16 Sep 18 Sep 23 Sep 25 Sep 30

OTT Rankings
Best       Best by category
WTT Rankings for OBC Members
4 Best 15km     4 Best 15km by category
OBC Member Best Three 15km Rankings
Overall     by category     age-Hcap Female   age-Hcap Male
OBC BAR Ranking
Overall     by category     Rider "Consistency-Graph"
ABC BAR Ranking
Overall     by category     Rider "Consistency-Graph"
Other years
TT Calculator All TT People All TT events
ABC Home VVV Home
CKAP GOLD MEDAL
Other Links

Note: OTT data from 2003 through 2006-Apr-14 and 2007-Apr-06-? and WTT from 2008-? is taken from the official OBC site.

Please send your comments and suggestions to: Celia McInnis
Copyright © 1998-2011 Celia McInnis. All rights reserved. Links are welcomed.